createdAt,value
2019-03-27T00:00:07.587Z,6.60
2019-03-27T00:02:36.149Z,6.60
2019-03-27T00:05:07.615Z,6.60
2019-03-27T00:07:36.236Z,6.70
2019-03-27T00:10:07.900Z,6.80
2019-03-27T00:12:36.633Z,6.80
2019-03-27T00:15:24.627Z,6.80
2019-03-27T00:17:53.180Z,6.80
2019-03-27T00:20:21.838Z,6.80
2019-03-27T00:22:50.465Z,6.70
2019-03-27T00:25:19.133Z,6.80
2019-03-27T00:27:47.688Z,6.80
2019-03-27T00:30:35.685Z,6.80
2019-03-27T00:33:04.308Z,6.90
2019-03-27T00:35:32.898Z,6.90
2019-03-27T00:38:01.520Z,7.00
2019-03-27T00:40:30.288Z,7.00
2019-03-27T00:42:58.850Z,6.90
2019-03-27T00:45:27.443Z,6.90
2019-03-27T00:47:56.064Z,6.90
2019-03-27T00:50:24.652Z,6.90
2019-03-27T00:52:53.204Z,6.80
2019-03-27T00:55:21.942Z,6.80
2019-03-27T00:58:09.904Z,6.80
2019-03-27T01:00:44.381Z,6.80
2019-03-27T01:03:12.946Z,6.80
2019-03-27T01:05:41.540Z,6.60
2019-03-27T01:08:29.502Z,6.70
2019-03-27T01:10:58.157Z,6.70
2019-03-27T01:13:46.148Z,6.80
2019-03-27T01:16:14.783Z,6.70
2019-03-27T01:18:43.360Z,6.80
2019-03-27T01:21:11.920Z,6.70
2019-03-27T01:23:40.616Z,6.60
2019-03-27T01:26:09.207Z,6.50
2019-03-27T01:28:57.204Z,6.60
2019-03-27T01:31:25.758Z,6.60
2019-03-27T01:33:54.417Z,6.60
2019-03-27T01:36:23.044Z,6.60
2019-03-27T01:38:51.637Z,6.70
2019-03-27T01:41:20.269Z,6.60
2019-03-27T01:43:48.827Z,6.50
2019-03-27T01:46:17.485Z,6.40
2019-03-27T01:48:46.044Z,6.40
2019-03-27T01:51:14.645Z,6.40
2019-03-27T01:53:43.196Z,6.30
2019-03-27T01:56:11.786Z,6.20
2019-03-27T01:58:40.414Z,6.20
2019-03-27T02:01:09.132Z,6.30
2019-03-27T02:03:37.694Z,6.30
2019-03-27T02:06:06.279Z,6.40
2019-03-27T02:08:54.241Z,6.50
2019-03-27T02:11:22.839Z,6.60
2019-03-27T02:13:51.464Z,6.60
2019-03-27T02:16:20.121Z,6.50
2019-03-27T02:18:48.745Z,6.50
2019-03-27T02:21:17.396Z,6.50
2019-03-27T02:23:45.958Z,6.40
2019-03-27T02:26:14.613Z,6.40
2019-03-27T02:28:43.172Z,6.50
2019-03-27T02:31:11.901Z,6.50
2019-03-27T02:33:40.519Z,6.50
2019-03-27T02:36:09.112Z,6.40
2019-03-27T02:38:37.674Z,6.10
2019-03-27T02:41:06.257Z,6.10
2019-03-27T02:43:54.155Z,6.10
2019-03-27T02:46:25.226Z,6.20
2019-03-27T02:48:52.950Z,6.20
2019-03-27T02:51:21.603Z,6.20
2019-03-27T02:53:50.230Z,6.10
2019-03-27T02:56:18.820Z,6.10
2019-03-27T02:59:06.782Z,6.10
2019-03-27T03:01:35.506Z,6.20
2019-03-27T03:04:23.501Z,6.20
2019-03-27T03:06:52.129Z,6.30
2019-03-27T03:09:20.690Z,6.30
2019-03-27T03:11:49.268Z,6.20
2019-03-27T03:14:19.364Z,6.30
2019-03-27T03:16:47.944Z,6.30
2019-03-27T03:19:16.515Z,6.20
2019-03-27T03:21:45.161Z,6.30
2019-03-27T03:24:14.190Z,6.30
2019-03-27T03:26:42.776Z,6.20
2019-03-27T03:29:11.406Z,6.20
2019-03-27T03:31:40.103Z,6.30
2019-03-27T03:34:08.689Z,6.30
2019-03-27T03:36:37.345Z,6.30
2019-03-27T03:39:06.642Z,6.30
2019-03-27T03:41:35.221Z,6.30
2019-03-27T03:44:03.918Z,6.30
2019-03-27T03:46:32.644Z,6.30
2019-03-27T03:49:01.197Z,6.20
2019-03-27T03:51:29.937Z,6.20
2019-03-27T03:53:58.925Z,6.10
2019-03-27T03:56:28.264Z,6.00
2019-03-27T03:58:58.149Z,6.00
2019-03-27T04:01:28.686Z,6.00
2019-03-27T04:03:57.792Z,6.10
2019-03-27T04:06:26.553Z,6.20
2019-03-27T04:08:55.110Z,6.20
2019-03-27T04:11:23.769Z,6.10
2019-03-27T04:14:11.668Z,6.00
2019-03-27T04:17:15.771Z,6.00
2019-03-27T04:19:49.264Z,5.90
2019-03-27T04:22:37.268Z,5.80
2019-03-27T04:25:07.017Z,5.80
2019-03-27T04:27:35.618Z,5.80
2019-03-27T04:30:06.922Z,5.80
2019-03-27T04:32:35.481Z,5.80
2019-03-27T04:35:05.512Z,5.80
2019-03-27T04:37:34.063Z,5.80
2019-03-27T04:40:02.987Z,5.90
2019-03-27T04:42:31.644Z,5.80
2019-03-27T04:45:00.430Z,5.90
2019-03-27T04:47:32.334Z,5.80
2019-03-27T04:49:59.337Z,5.80
2019-03-27T04:52:27.935Z,5.70
2019-03-27T04:54:56.490Z,5.60
2019-03-27T04:57:37.266Z,5.60
2019-03-27T05:00:08.842Z,5.60
2019-03-27T05:02:37.728Z,5.60
2019-03-27T05:05:25.646Z,5.60
2019-03-27T05:08:13.619Z,5.50
2019-03-27T05:10:42.276Z,5.50
2019-03-27T05:13:10.998Z,5.30
2019-03-27T05:15:39.583Z,5.40
2019-03-27T05:18:08.208Z,5.50
2019-03-27T05:20:36.852Z,5.50
2019-03-27T05:23:24.762Z,5.40
2019-03-27T05:25:53.353Z,5.50
2019-03-27T05:28:21.980Z,5.40
2019-03-27T05:31:09.978Z,5.50
2019-03-27T05:33:38.600Z,5.50
2019-03-27T05:36:26.592Z,5.40
2019-03-27T05:38:55.151Z,5.60
2019-03-27T05:41:23.740Z,5.60
2019-03-27T05:44:11.735Z,5.60
2019-03-27T05:46:40.320Z,5.70
2019-03-27T05:49:08.950Z,5.70
2019-03-27T05:51:37.540Z,5.60
2019-03-27T05:54:06.093Z,5.40
2019-03-27T05:56:34.684Z,5.20
2019-03-27T05:59:03.307Z,5.10
2019-03-27T06:01:31.892Z,5.20
2019-03-27T06:04:00.445Z,5.40
2019-03-27T06:06:48.384Z,5.50
2019-03-27T06:09:16.945Z,5.50
2019-03-27T06:12:04.943Z,5.40
2019-03-27T06:14:33.500Z,5.50
2019-03-27T06:17:21.526Z,5.70
2019-03-27T06:19:53.649Z,5.80
2019-03-27T06:22:22.310Z,5.80
2019-03-27T06:24:50.868Z,6.00
2019-03-27T06:27:19.455Z,6.20
2019-03-27T06:29:48.010Z,6.30
2019-03-27T06:32:16.604Z,6.30
2019-03-27T06:34:45.233Z,6.40
2019-03-27T06:37:13.819Z,6.30
2019-03-27T06:39:42.377Z,6.40
2019-03-27T06:42:10.964Z,6.50
2019-03-27T06:44:39.534Z,6.60
2019-03-27T06:47:08.188Z,6.70
2019-03-27T06:49:36.740Z,6.90
2019-03-27T06:52:24.741Z,7.00
2019-03-27T06:54:53.304Z,7.00
2019-03-27T06:57:21.965Z,6.90
2019-03-27T06:59:50.543Z,7.00
2019-03-27T07:02:19.133Z,7.20
2019-03-27T07:04:49.614Z,7.30
2019-03-27T07:07:37.719Z,7.50
2019-03-27T07:10:28.981Z,7.80
2019-03-27T07:13:00.292Z,7.90
2019-03-27T07:15:31.008Z,7.90
2019-03-27T07:18:23.405Z,7.70
2019-03-27T07:20:53.719Z,7.50
2019-03-27T07:23:22.385Z,7.50
2019-03-27T07:25:50.976Z,7.60
2019-03-27T07:28:19.576Z,7.60
2019-03-27T07:30:48.134Z,7.50
2019-03-27T07:33:16.725Z,7.50
2019-03-27T07:35:45.354Z,7.50
2019-03-27T07:38:14.104Z,7.60
2019-03-27T07:40:42.673Z,7.80
2019-03-27T07:43:11.273Z,7.90
2019-03-27T07:45:39.849Z,8.20
2019-03-27T07:48:08.522Z,8.30
2019-03-27T07:50:37.142Z,8.60
2019-03-27T07:53:05.689Z,8.70
2019-03-27T07:55:34.256Z,8.60
2019-03-27T07:58:02.915Z,8.50
2019-03-27T08:00:31.606Z,8.70
2019-03-27T08:03:00.404Z,8.90
2019-03-27T08:05:28.982Z,9.10
2019-03-27T08:07:57.689Z,9.40
2019-03-27T08:10:26.326Z,9.50
2019-03-27T08:12:55.060Z,9.80
2019-03-27T08:15:23.611Z,10.00
2019-03-27T08:17:52.209Z,10.20
2019-03-27T08:20:20.853Z,10.30
2019-03-27T08:22:49.524Z,10.40
2019-03-27T08:25:18.220Z,10.70
2019-03-27T08:27:46.793Z,11.00
2019-03-27T08:30:16.026Z,10.90
2019-03-27T08:32:44.580Z,10.60
2019-03-27T08:35:13.515Z,10.40
2019-03-27T08:37:42.212Z,10.30
2019-03-27T08:40:11.243Z,10.30
2019-03-27T08:42:59.314Z,10.00
2019-03-27T08:45:28.040Z,9.90
2019-03-27T08:48:15.978Z,10.00
2019-03-27T08:50:44.528Z,10.10
2019-03-27T08:53:13.092Z,10.30
2019-03-27T08:55:41.696Z,10.40
2019-03-27T08:58:10.328Z,10.60
2019-03-27T09:00:50.363Z,10.60
2019-03-27T09:03:19.189Z,10.70
2019-03-27T09:05:47.887Z,10.60
2019-03-27T09:08:16.627Z,10.60
2019-03-27T09:10:45.185Z,10.80
2019-03-27T09:13:13.800Z,10.90
2019-03-27T09:15:42.348Z,10.80
2019-03-27T09:18:11.017Z,11.00
2019-03-27T09:20:39.652Z,11.10
2019-03-27T09:23:08.254Z,11.20
2019-03-27T09:25:42.557Z,11.40
2019-03-27T09:28:11.240Z,11.50
2019-03-27T09:30:39.869Z,11.60
2019-03-27T09:33:27.815Z,11.60
2019-03-27T09:35:56.550Z,11.40
2019-03-27T09:38:25.263Z,11.10
2019-03-27T09:40:53.908Z,10.90
2019-03-27T09:43:41.845Z,10.70
2019-03-27T09:46:10.471Z,10.50
2019-03-27T09:48:39.131Z,10.50
2019-03-27T09:51:07.689Z,10.50
2019-03-27T09:53:36.276Z,10.30
2019-03-27T09:56:18.090Z,10.30
2019-03-27T09:58:35.240Z,10.20
2019-03-27T10:01:05.043Z,10.20
2019-03-27T10:03:53.046Z,10.30
2019-03-27T10:06:40.973Z,10.50
2019-03-27T10:09:09.532Z,10.80
2019-03-27T10:11:38.128Z,10.90
2019-03-27T10:14:06.755Z,10.90
2019-03-27T10:16:35.421Z,10.90
2019-03-27T10:19:04.111Z,11.10
2019-03-27T10:21:32.861Z,11.40
2019-03-27T10:24:01.417Z,11.50
2019-03-27T10:26:30.164Z,11.60
2019-03-27T10:28:58.749Z,12.00
2019-03-27T10:31:32.443Z,11.90
2019-03-27T10:34:01.190Z,12.10
2019-03-27T10:36:29.820Z,12.40
2019-03-27T10:38:58.413Z,12.60
2019-03-27T10:41:26.968Z,12.60
2019-03-27T10:43:55.560Z,12.30
2019-03-27T10:46:24.206Z,12.10
2019-03-27T10:48:53.272Z,12.40
2019-03-27T10:51:21.831Z,12.30
2019-03-27T10:53:50.592Z,12.00
2019-03-27T10:56:19.153Z,11.90
2019-03-27T10:58:47.743Z,11.70
2019-03-27T11:01:16.366Z,11.80
2019-03-27T11:03:44.959Z,12.00
2019-03-27T11:06:13.520Z,12.10
2019-03-27T11:08:42.184Z,12.30
2019-03-27T11:11:10.743Z,12.10
2019-03-27T11:13:39.340Z,12.20
2019-03-27T11:16:07.903Z,12.10
2019-03-27T11:18:36.560Z,12.00
2019-03-27T11:21:05.194Z,11.70
2019-03-27T11:23:33.890Z,11.70
2019-03-27T11:26:02.547Z,11.80
2019-03-27T11:28:31.137Z,11.90
2019-03-27T11:30:59.772Z,11.70
2019-03-27T11:33:29.074Z,11.70
2019-03-27T11:35:57.729Z,12.00
2019-03-27T11:38:26.455Z,12.20
2019-03-27T11:40:55.016Z,12.20
2019-03-27T11:43:23.761Z,12.00
2019-03-27T11:45:52.402Z,11.80
2019-03-27T11:48:21.160Z,11.90
2019-03-27T11:51:09.175Z,12.30
2019-03-27T11:53:37.767Z,12.60
2019-03-27T11:56:06.388Z,13.10
2019-03-27T11:58:34.978Z,13.10
2019-03-27T12:01:03.608Z,13.00
2019-03-27T12:03:32.337Z,12.60
2019-03-27T12:06:00.920Z,12.60
2019-03-27T12:08:29.481Z,12.30
2019-03-27T12:10:58.041Z,12.50
2019-03-27T12:13:26.627Z,12.60
2019-03-27T12:15:55.188Z,12.70
2019-03-27T12:18:23.914Z,12.50
2019-03-27T12:20:58.767Z,12.50
2019-03-27T12:23:22.786Z,12.50
2019-03-27T12:25:51.346Z,12.50
2019-03-27T12:28:19.936Z,12.60
2019-03-27T12:30:48.569Z,12.60
2019-03-27T12:33:17.168Z,12.40
2019-03-27T12:35:45.789Z,12.50
2019-03-27T12:38:14.445Z,12.60
2019-03-27T12:40:43.069Z,12.50
2019-03-27T12:43:11.749Z,12.30
2019-03-27T12:45:59.736Z,12.40
2019-03-27T12:48:28.321Z,12.40
2019-03-27T12:50:56.952Z,12.40
2019-03-27T12:53:25.532Z,12.60
2019-03-27T12:55:54.427Z,12.90
2019-03-27T12:58:23.083Z,12.90
2019-03-27T13:00:51.705Z,12.50
2019-03-27T13:03:39.626Z,12.40
2019-03-27T13:06:27.589Z,12.00
2019-03-27T13:08:56.177Z,12.00
2019-03-27T13:11:24.877Z,11.90
2019-03-27T13:13:53.459Z,12.00
2019-03-27T13:16:22.022Z,11.80
2019-03-27T13:18:50.644Z,12.00
2019-03-27T13:21:26.228Z,12.00
2019-03-27T13:23:49.468Z,11.90
2019-03-27T13:26:37.433Z,11.80
2019-03-27T13:29:06.029Z,11.90
2019-03-27T13:31:34.653Z,11.90
2019-03-27T13:34:03.253Z,12.00
2019-03-27T13:36:32.477Z,12.00
2019-03-27T13:39:01.208Z,12.00
2019-03-27T13:41:30.119Z,12.10
2019-03-27T13:43:58.760Z,12.30
2019-03-27T13:46:27.392Z,12.60
2019-03-27T13:48:55.984Z,12.70
2019-03-27T13:51:43.885Z,12.60
2019-03-27T13:54:12.474Z,12.80
2019-03-27T13:56:41.192Z,12.90
2019-03-27T13:59:09.778Z,12.90
2019-03-27T14:01:38.345Z,12.90
2019-03-27T14:04:06.939Z,12.70
2019-03-27T14:06:35.598Z,12.70
2019-03-27T14:09:06.692Z,13.10
2019-03-27T14:11:35.253Z,13.00
2019-03-27T14:14:11.112Z,12.90
2019-03-27T14:16:34.302Z,12.90
2019-03-27T14:19:02.885Z,12.90
2019-03-27T14:21:31.440Z,12.70
2019-03-27T14:24:00.044Z,12.60
2019-03-27T14:26:48.001Z,12.60
2019-03-27T14:29:35.920Z,12.40
2019-03-27T14:32:04.607Z,12.30
2019-03-27T14:34:33.261Z,12.20
2019-03-27T14:37:01.820Z,12.10
2019-03-27T14:39:30.415Z,12.20
2019-03-27T14:41:59.107Z,12.30
2019-03-27T14:44:27.688Z,12.30
2019-03-27T14:46:56.320Z,12.50
2019-03-27T14:49:25.440Z,12.70
2019-03-27T14:52:13.409Z,12.80
2019-03-27T14:54:41.998Z,12.60
2019-03-27T14:57:10.561Z,12.40
2019-03-27T14:59:39.235Z,12.30
2019-03-27T15:02:08.100Z,12.30
2019-03-27T15:04:36.714Z,12.10
2019-03-27T15:07:05.340Z,12.10
2019-03-27T15:09:33.896Z,11.80
2019-03-27T15:12:02.560Z,11.70
2019-03-27T15:14:50.551Z,11.80
2019-03-27T15:17:38.440Z,11.80
2019-03-27T15:20:08.564Z,11.80
2019-03-27T15:22:37.561Z,11.80
2019-03-27T15:25:07.994Z,11.70
2019-03-27T15:27:55.889Z,11.70
2019-03-27T15:30:24.561Z,11.70
2019-03-27T15:32:53.117Z,11.70
2019-03-27T15:35:21.704Z,11.70
2019-03-27T15:37:50.262Z,11.80
2019-03-27T15:40:39.929Z,11.70
2019-03-27T15:43:08.567Z,11.70
2019-03-27T15:45:56.564Z,11.70
2019-03-27T15:48:25.120Z,11.80
2019-03-27T15:50:58.642Z,11.70
2019-03-27T15:53:24.060Z,11.70
2019-03-27T15:55:52.722Z,11.70
2019-03-27T15:58:21.281Z,11.80
2019-03-27T16:00:49.873Z,11.80
2019-03-27T16:03:18.582Z,11.80
2019-03-27T16:05:47.302Z,11.80
2019-03-27T16:08:35.192Z,11.60
2019-03-27T16:11:04.032Z,11.70
2019-03-27T16:13:32.727Z,11.70
2019-03-27T16:16:01.393Z,11.80
2019-03-27T16:18:30.119Z,11.80
2019-03-27T16:20:58.711Z,11.70
2019-03-27T16:23:27.526Z,11.70
2019-03-27T16:25:56.193Z,11.60
2019-03-27T16:28:24.756Z,11.40
2019-03-27T16:30:53.585Z,11.40
2019-03-27T16:33:22.135Z,11.40
2019-03-27T16:35:50.798Z,11.40
2019-03-27T16:38:19.447Z,11.40
2019-03-27T16:41:08.921Z,11.50
2019-03-27T16:43:37.549Z,11.40
2019-03-27T16:46:07.380Z,11.40
2019-03-27T16:48:35.940Z,11.40
2019-03-27T16:51:04.662Z,11.40
2019-03-27T16:53:33.287Z,11.30
2019-03-27T16:56:01.976Z,11.20
2019-03-27T16:58:30.675Z,11.20
2019-03-27T17:00:59.303Z,11.20
2019-03-27T17:03:27.896Z,11.20
2019-03-27T17:05:56.453Z,11.20
2019-03-27T17:08:44.457Z,11.10
2019-03-27T17:11:32.462Z,11.10
2019-03-27T17:14:01.028Z,11.10
2019-03-27T17:16:29.681Z,11.00
2019-03-27T17:18:58.231Z,11.00
2019-03-27T17:21:26.895Z,10.90
2019-03-27T17:23:55.447Z,10.90
2019-03-27T17:26:24.119Z,10.80
2019-03-27T17:28:52.749Z,10.80
2019-03-27T17:31:21.464Z,10.70
2019-03-27T17:33:50.124Z,10.70
2019-03-27T17:36:18.757Z,10.60
2019-03-27T17:38:47.347Z,10.60
2019-03-27T17:41:15.973Z,10.50
2019-03-27T17:43:44.564Z,10.50
2019-03-27T17:46:13.260Z,10.50
2019-03-27T17:48:41.853Z,10.50
2019-03-27T17:51:10.408Z,10.40
2019-03-27T17:53:39.128Z,10.30
2019-03-27T17:56:07.829Z,10.20
2019-03-27T17:58:36.484Z,10.10
2019-03-27T18:01:05.452Z,10.00
2019-03-27T18:03:34.109Z,9.90
2019-03-27T18:06:02.784Z,9.70
2019-03-27T18:08:31.440Z,9.60
2019-03-27T18:11:00.061Z,9.50
2019-03-27T18:13:28.648Z,9.40
2019-03-27T18:15:57.327Z,9.30
2019-03-27T18:18:45.325Z,9.10
2019-03-27T18:21:13.887Z,9.00
2019-03-27T18:23:46.396Z,8.90
2019-03-27T18:26:32.077Z,8.80
2019-03-27T18:29:20.220Z,8.60
2019-03-27T18:31:48.773Z,8.60
2019-03-27T18:34:17.454Z,8.30
2019-03-27T18:36:46.320Z,8.30
2019-03-27T18:39:14.989Z,8.20
2019-03-27T18:41:43.618Z,8.30
2019-03-27T18:44:12.397Z,8.20
2019-03-27T18:47:00.418Z,8.10
2019-03-27T18:49:28.980Z,8.00
2019-03-27T18:52:17.282Z,8.00
2019-03-27T18:54:45.945Z,8.00
2019-03-27T18:57:14.985Z,7.90
2019-03-27T18:59:43.717Z,7.90
2019-03-27T19:02:12.396Z,7.90
2019-03-27T19:05:00.460Z,7.90
2019-03-27T19:07:29.115Z,7.70
2019-03-27T19:09:57.674Z,7.80
2019-03-27T19:12:27.172Z,7.70
2019-03-27T19:14:55.941Z,7.70
2019-03-27T19:17:24.540Z,7.50
2019-03-27T19:20:12.505Z,7.50
2019-03-27T19:22:41.105Z,7.30
2019-03-27T19:25:10.104Z,7.40
2019-03-27T19:27:38.712Z,7.30
2019-03-27T19:30:08.110Z,7.30
2019-03-27T19:32:36.784Z,7.20
2019-03-27T19:35:06.088Z,7.10
2019-03-27T19:37:34.761Z,7.10
2019-03-27T19:40:04.067Z,7.00
2019-03-27T19:42:32.667Z,6.80
2019-03-27T19:45:01.228Z,6.80
2019-03-27T19:47:29.837Z,6.80
2019-03-27T19:49:58.405Z,6.70
2019-03-27T19:52:26.966Z,6.70
2019-03-27T19:55:14.984Z,6.60
2019-03-27T19:57:43.593Z,6.70
2019-03-27T20:00:14.045Z,6.60
2019-03-27T20:02:42.800Z,6.60
2019-03-27T20:05:30.763Z,6.60
2019-03-27T20:07:59.377Z,6.60
2019-03-27T20:10:27.998Z,6.50
2019-03-27T20:13:15.937Z,6.30
2019-03-27T20:15:44.495Z,6.30
2019-03-27T20:18:13.152Z,6.30
2019-03-27T20:21:01.056Z,6.30
2019-03-27T20:23:29.729Z,6.20
2019-03-27T20:25:58.284Z,6.20
2019-03-27T20:28:46.272Z,6.30
2019-03-27T20:31:14.824Z,6.10
2019-03-27T20:33:43.415Z,6.00
2019-03-27T20:36:13.247Z,6.10
2019-03-27T20:38:41.876Z,6.10
2019-03-27T20:41:10.428Z,6.00
2019-03-27T20:43:39.016Z,6.00
2019-03-27T20:46:24.085Z,6.00
2019-03-27T20:48:42.716Z,6.00
2019-03-27T20:51:11.457Z,5.90
2019-03-27T20:53:40.042Z,5.80
2019-03-27T20:56:08.664Z,5.70
2019-03-27T20:58:37.321Z,5.60
2019-03-27T21:01:05.953Z,5.50
2019-03-27T21:03:34.612Z,5.50
2019-03-27T21:06:03.242Z,5.50
2019-03-27T21:08:32.263Z,5.50
2019-03-27T21:11:00.815Z,5.50
2019-03-27T21:13:29.475Z,5.50
2019-03-27T21:15:58.031Z,5.50
2019-03-27T21:18:46.028Z,5.50
2019-03-27T21:21:14.579Z,5.50
2019-03-27T21:23:43.165Z,5.20
2019-03-27T21:26:31.129Z,5.30
2019-03-27T21:29:19.128Z,5.20
2019-03-27T21:32:07.100Z,5.30
2019-03-27T21:34:35.684Z,5.30
2019-03-27T21:37:04.239Z,5.30
2019-03-27T21:39:32.833Z,5.20
2019-03-27T21:42:01.460Z,5.20
2019-03-27T21:44:30.187Z,5.10
2019-03-27T21:46:58.744Z,5.10
2019-03-27T21:49:27.404Z,5.10
2019-03-27T21:51:56.035Z,5.10
2019-03-27T21:54:24.615Z,5.10
2019-03-27T21:56:53.176Z,5.00
2019-03-27T21:59:41.129Z,5.00
2019-03-27T22:02:09.967Z,4.90
2019-03-27T22:04:39.235Z,5.00
2019-03-27T22:07:07.855Z,4.90
2019-03-27T22:09:36.447Z,4.90
2019-03-27T22:12:24.341Z,4.80
2019-03-27T22:14:52.999Z,4.60
2019-03-27T22:17:21.548Z,4.50
2019-03-27T22:19:50.208Z,4.50
2019-03-27T22:22:18.838Z,4.50
2019-03-27T22:24:47.492Z,4.50
2019-03-27T22:27:16.120Z,4.60
2019-03-27T22:29:44.721Z,4.60
2019-03-27T22:32:13.285Z,4.50
2019-03-27T22:34:44.371Z,4.40
2019-03-27T22:37:12.152Z,4.50
2019-03-27T22:39:40.743Z,4.50
2019-03-27T22:42:09.373Z,4.30
2019-03-27T22:44:37.961Z,4.30
2019-03-27T22:47:25.920Z,4.30
2019-03-27T22:49:54.508Z,4.30
2019-03-27T22:52:23.144Z,4.30
2019-03-27T22:54:51.798Z,4.40
2019-03-27T22:57:39.764Z,4.10
2019-03-27T23:00:32.068Z,3.90
2019-03-27T23:03:01.273Z,3.80
2019-03-27T23:05:30.257Z,3.70
2019-03-27T23:07:59.033Z,3.70
2019-03-27T23:10:27.628Z,3.80
2019-03-27T23:12:56.684Z,3.90
2019-03-27T23:15:25.348Z,3.90
2019-03-27T23:17:53.909Z,3.90
2019-03-27T23:20:22.501Z,3.80
2019-03-27T23:22:51.063Z,3.80
2019-03-27T23:25:19.737Z,3.80
2019-03-27T23:27:48.295Z,3.70
2019-03-27T23:30:17.325Z,3.80
2019-03-27T23:33:05.225Z,3.70
2019-03-27T23:35:33.813Z,3.80
2019-03-27T23:38:02.377Z,3.70
2019-03-27T23:40:30.968Z,3.60
2019-03-27T23:42:59.533Z,3.60
2019-03-27T23:45:28.163Z,3.70
2019-03-27T23:48:16.088Z,3.70
2019-03-27T23:51:04.022Z,3.60
2019-03-27T23:53:32.594Z,3.60
2019-03-27T23:56:01.185Z,3.70
2019-03-27T23:58:29.820Z,3.60
